sensor_id;sensor_type;location;lat;lon;timestamp;pressure;altitude;pressure_sealevel;temperature;humidity
10940;BME280;5522;42.696;23.494;2022-10-28T00:00:47;53634.69;;;-139.68;100.00
10940;BME280;5522;42.696;23.494;2022-10-28T00:03:15;53622.63;;;-139.68;100.00
10940;BME280;5522;42.696;23.494;2022-10-28T00:05:42;53634.69;;;-139.68;100.00
10940;BME280;5522;42.696;23.494;2022-10-28T00:08:10;53620.63;;;-139.68;100.00
10940;BME280;5522;42.696;23.494;2022-10-28T00:10:36;53582.44;;;-139.68;100.00
10940;BME280;5522;42.696;23.494;2022-10-28T00:13:03;53610.56;;;-139.68;100.00
10940;BME280;5522;42.696;23.494;2022-10-28T00:15:33;53632.69;;;-139.68;100.00
10940;BME280;5522;42.696;23.494;2022-10-28T00:17:59;53590.47;;;-139.68;100.00
10940;BME280;5522;42.696;23.494;2022-10-28T00:22:59;53624.63;;;-139.68;100.00
10940;BME280;5522;42.696;23.494;2022-10-28T00:25:26;53602.53;;;-139.68;100.00
10940;BME280;5522;42.696;23.494;2022-10-28T00:27:53;53626.66;;;-139.68;100.00
10940;BME280;5522;42.696;23.494;2022-10-28T00:30:20;53606.56;;;-139.68;100.00
10940;BME280;5522;42.696;23.494;2022-10-28T00:32:47;53612.56;;;-139.68;100.00
10940;BME280;5522;42.696;23.494;2022-10-28T00:35:13;53646.75;;;-139.68;100.00
10940;BME280;5522;42.696;23.494;2022-10-28T00:37:40;53650.78;;;-139.68;100.00
10940;BME280;5522;42.696;23.494;2022-10-28T00:40:10;53630.66;;;-139.68;100.00
10940;BME280;5522;42.696;23.494;2022-10-28T00:42:37;53584.44;;;-139.68;100.00
10940;BME280;5522;42.696;23.494;2022-10-28T00:45:05;53602.53;;;-139.68;100.00
10940;BME280;5522;42.696;23.494;2022-10-28T00:47:38;53638.72;;;-139.68;100.00
10940;BME280;5522;42.696;23.494;2022-10-28T00:50:14;53654.78;;;-139.68;100.00
10940;BME280;5522;42.696;23.494;2022-10-28T00:52:45;53610.56;;;-139.68;100.00
10940;BME280;5522;42.696;23.494;2022-10-28T00:55:16;53630.66;;;-139.68;100.00
10940;BME280;5522;42.696;23.494;2022-10-28T00:57:44;53606.56;;;-139.68;100.00
10940;BME280;5522;42.696;23.494;2022-10-28T01:05:35;53618.63;;;-139.68;100.00
10940;BME280;5522;42.696;23.494;2022-10-28T01:08:04;53634.69;;;-139.68;100.00
10940;BME280;5522;42.696;23.494;2022-10-28T01:10:55;53624.63;;;-139.68;100.00
10940;BME280;5522;42.696;23.494;2022-10-28T01:13:35;53622.63;;;-139.68;100.00
10940;BME280;5522;42.696;23.494;2022-10-28T01:16:10;53626.66;;;-139.68;100.00
10940;BME280;5522;42.696;23.494;2022-10-28T01:18:46;53638.72;;;-139.68;100.00
10940;BME280;5522;42.696;23.494;2022-10-28T01:24:18;53664.84;;;-139.68;100.00
10940;BME280;5522;42.696;23.494;2022-10-28T01:27:18;53624.63;;;-139.68;100.00
10940;BME280;5522;42.696;23.494;2022-10-28T01:30:02;53602.53;;;-139.68;100.00
10940;BME280;5522;42.696;23.494;2022-10-28T01:32:39;53638.72;;;-139.68;100.00
10940;BME280;5522;42.696;23.494;2022-10-28T01:35:12;53586.44;;;-139.68;100.00
10940;BME280;5522;42.696;23.494;2022-10-28T01:37:47;53660.81;;;-139.68;100.00
10940;BME280;5522;42.696;23.494;2022-10-28T01:40:19;53616.59;;;-139.68;100.00
10940;BME280;5522;42.696;23.494;2022-10-28T01:42:54;53646.75;;;-139.68;100.00
10940;BME280;5522;42.696;23.494;2022-10-28T01:45:31;53572.38;;;-139.68;100.00
10940;BME280;5522;42.696;23.494;2022-10-28T01:48:04;53634.69;;;-139.68;100.00
10940;BME280;5522;42.696;23.494;2022-10-28T01:50:37;53632.69;;;-139.68;100.00
10940;BME280;5522;42.696;23.494;2022-10-28T01:53:09;53606.56;;;-139.68;100.00
10940;BME280;5522;42.696;23.494;2022-10-28T01:55:40;53604.53;;;-139.68;100.00
10940;BME280;5522;42.696;23.494;2022-10-28T01:58:12;53610.56;;;-139.68;100.00
10940;BME280;5522;42.696;23.494;2022-10-28T02:00:41;53630.66;;;-139.68;100.00
10940;BME280;5522;42.696;23.494;2022-10-28T02:03:10;53590.47;;;-139.68;100.00
10940;BME280;5522;42.696;23.494;2022-10-28T02:05:40;53638.72;;;-139.68;100.00
10940;BME280;5522;42.696;23.494;2022-10-28T02:08:34;53618.63;;;-139.68;100.00
10940;BME280;5522;42.696;23.494;2022-10-28T02:11:23;53602.53;;;-139.68;100.00
10940;BME280;5522;42.696;23.494;2022-10-28T02:13:58;53650.78;;;-139.68;100.00
10940;BME280;5522;42.696;23.494;2022-10-28T02:16:36;53630.66;;;-139.68;100.00
10940;BME280;5522;42.696;23.494;2022-10-28T02:19:12;53578.41;;;-139.68;100.00
10940;BME280;5522;42.696;23.494;2022-10-28T02:21:48;53632.69;;;-139.68;100.00
10940;BME280;5522;42.696;23.494;2022-10-28T02:24:27;53596.50;;;-139.68;100.00
10940;BME280;5522;42.696;23.494;2022-10-28T02:27:00;53644.75;;;-139.68;100.00
10940;BME280;5522;42.696;23.494;2022-10-28T02:29:36;53632.69;;;-139.68;100.00
10940;BME280;5522;42.696;23.494;2022-10-28T02:32:06;53610.56;;;-139.68;100.00
10940;BME280;5522;42.696;23.494;2022-10-28T02:34:39;53610.56;;;-139.68;100.00
10940;BME280;5522;42.696;23.494;2022-10-28T02:37:12;53634.69;;;-139.68;100.00
10940;BME280;5522;42.696;23.494;2022-10-28T02:39:42;53602.53;;;-139.68;100.00
10940;BME280;5522;42.696;23.494;2022-10-28T02:42:13;53622.63;;;-139.68;100.00
10940;BME280;5522;42.696;23.494;2022-10-28T02:44:45;53638.72;;;-139.68;100.00
10940;BME280;5522;42.696;23.494;2022-10-28T02:47:17;53632.69;;;-139.68;100.00
10940;BME280;5522;42.696;23.494;2022-10-28T02:49:50;53570.38;;;-139.68;100.00
10940;BME280;5522;42.696;23.494;2022-10-28T02:52:20;53600.53;;;-139.68;100.00
10940;BME280;5522;42.696;23.494;2022-10-28T02:54:52;53634.69;;;-139.68;100.00
10940;BME280;5522;42.696;23.494;2022-10-28T02:57:22;53650.78;;;-139.68;100.00
10940;BME280;5522;42.696;23.494;2022-10-28T02:59:53;53590.47;;;-139.68;100.00
10940;BME280;5522;42.696;23.494;2022-10-28T03:02:22;53642.72;;;-139.68;100.00
10940;BME280;5522;42.696;23.494;2022-10-28T03:04:51;53598.50;;;-139.68;100.00
10940;BME280;5522;42.696;23.494;2022-10-28T03:07:18;53602.53;;;-139.68;100.00
10940;BME280;5522;42.696;23.494;2022-10-28T03:09:45;53630.66;;;-139.68;100.00
10940;BME280;5522;42.696;23.494;2022-10-28T03:12:12;53614.59;;;-139.68;100.00
10940;BME280;5522;42.696;23.494;2022-10-28T03:14:38;53620.63;;;-139.68;100.00
10940;BME280;5522;42.696;23.494;2022-10-28T03:17:06;53610.56;;;-139.68;100.00
10940;BME280;5522;42.696;23.494;2022-10-28T03:19:33;53614.59;;;-139.68;100.00
10940;BME280;5522;42.696;23.494;2022-10-28T03:22:02;53626.66;;;-139.68;100.00
10940;BME280;5522;42.696;23.494;2022-10-28T03:24:28;53586.44;;;-139.68;100.00
10940;BME280;5522;42.696;23.494;2022-10-28T03:26:55;53614.59;;;-139.68;100.00
10940;BME280;5522;42.696;23.494;2022-10-28T03:29:22;53654.78;;;-139.68;100.00
10940;BME280;5522;42.696;23.494;2022-10-28T03:31:49;53618.63;;;-139.68;100.00
10940;BME280;5522;42.696;23.494;2022-10-28T03:34:16;53608.56;;;-139.68;100.00
10940;BME280;5522;42.696;23.494;2022-10-28T03:36:42;53612.56;;;-139.68;100.00
10940;BME280;5522;42.696;23.494;2022-10-28T03:39:11;53602.53;;;-139.68;100.00
10940;BME280;5522;42.696;23.494;2022-10-28T03:41:37;53628.66;;;-139.68;100.00
10940;BME280;5522;42.696;23.494;2022-10-28T03:44:04;53616.59;;;-139.68;100.00
10940;BME280;5522;42.696;23.494;2022-10-28T03:46:31;53598.50;;;-139.68;100.00
10940;BME280;5522;42.696;23.494;2022-10-28T03:48:58;53578.41;;;-139.68;100.00
10940;BME280;5522;42.696;23.494;2022-10-28T03:51:25;53638.72;;;-139.68;100.00
10940;BME280;5522;42.696;23.494;2022-10-28T03:53:52;53598.50;;;-139.68;100.00
10940;BME280;5522;42.696;23.494;2022-10-28T03:56:20;53614.59;;;-139.68;100.00
10940;BME280;5522;42.696;23.494;2022-10-28T03:58:48;53650.78;;;-139.68;100.00
10940;BME280;5522;42.696;23.494;2022-10-28T04:01:15;53646.75;;;-139.68;100.00
10940;BME280;5522;42.696;23.494;2022-10-28T04:03:42;53624.63;;;-139.68;100.00
10940;BME280;5522;42.696;23.494;2022-10-28T04:06:09;53586.44;;;-139.68;100.00
10940;BME280;5522;42.696;23.494;2022-10-28T04:08:35;53612.56;;;-139.68;100.00
10940;BME280;5522;42.696;23.494;2022-10-28T04:11:02;53612.56;;;-139.68;100.00
10940;BME280;5522;42.696;23.494;2022-10-28T04:13:30;53622.63;;;-139.68;100.00
10940;BME280;5522;42.696;23.494;2022-10-28T04:15:57;53610.56;;;-139.68;100.00
10940;BME280;5522;42.696;23.494;2022-10-28T04:18:26;53610.56;;;-139.68;100.00
10940;BME280;5522;42.696;23.494;2022-10-28T04:20:53;53600.53;;;-139.68;100.00
10940;BME280;5522;42.696;23.494;2022-10-28T04:23:20;53626.66;;;-139.68;100.00
10940;BME280;5522;42.696;23.494;2022-10-28T04:25:50;53640.72;;;-139.68;100.00
10940;BME280;5522;42.696;23.494;2022-10-28T04:28:17;53586.44;;;-139.68;100.00
10940;BME280;5522;42.696;23.494;2022-10-28T04:30:46;53608.56;;;-139.68;100.00
10940;BME280;5522;42.696;23.494;2022-10-28T04:33:14;53606.56;;;-139.68;100.00
10940;BME280;5522;42.696;23.494;2022-10-28T04:35:41;53598.50;;;-139.68;100.00
10940;BME280;5522;42.696;23.494;2022-10-28T04:38:08;53582.44;;;-139.68;100.00
10940;BME280;5522;42.696;23.494;2022-10-28T04:40:35;53606.56;;;-139.68;100.00
10940;BME280;5522;42.696;23.494;2022-10-28T04:43:02;53622.63;;;-139.68;100.00
10940;BME280;5522;42.696;23.494;2022-10-28T04:45:30;53626.66;;;-139.68;100.00
10940;BME280;5522;42.696;23.494;2022-10-28T04:47:59;53576.41;;;-139.68;100.00
10940;BME280;5522;42.696;23.494;2022-10-28T04:50:27;53610.56;;;-139.68;100.00
10940;BME280;5522;42.696;23.494;2022-10-28T04:52:53;53606.56;;;-139.68;100.00
10940;BME280;5522;42.696;23.494;2022-10-28T04:55:20;53620.63;;;-139.68;100.00
10940;BME280;5522;42.696;23.494;2022-10-28T04:57:52;53602.53;;;-139.68;100.00
10940;BME280;5522;42.696;23.494;2022-10-28T05:00:20;53612.56;;;-139.68;100.00
10940;BME280;5522;42.696;23.494;2022-10-28T05:02:46;53602.53;;;-139.68;100.00
10940;BME280;5522;42.696;23.494;2022-10-28T05:05:15;53626.66;;;-139.68;100.00
10940;BME280;5522;42.696;23.494;2022-10-28T05:07:42;53654.78;;;-139.68;100.00
10940;BME280;5522;42.696;23.494;2022-10-28T05:10:09;53614.59;;;-139.68;100.00
10940;BME280;5522;42.696;23.494;2022-10-28T05:12:36;53588.47;;;-139.68;100.00
10940;BME280;5522;42.696;23.494;2022-10-28T05:15:04;53602.53;;;-139.68;100.00
10940;BME280;5522;42.696;23.494;2022-10-28T05:17:31;53606.56;;;-139.68;100.00
10940;BME280;5522;42.696;23.494;2022-10-28T05:19:58;53592.47;;;-139.68;100.00
10940;BME280;5522;42.696;23.494;2022-10-28T05:22:26;53638.72;;;-139.68;100.00
10940;BME280;5522;42.696;23.494;2022-10-28T05:24:53;53614.59;;;-139.68;100.00
10940;BME280;5522;42.696;23.494;2022-10-28T05:27:20;53672.88;;;-139.68;100.00
10940;BME280;5522;42.696;23.494;2022-10-28T05:29:46;53686.97;;;-139.68;100.00
10940;BME280;5522;42.696;23.494;2022-10-28T05:32:13;53666.84;;;-139.68;100.00
10940;BME280;5522;42.696;23.494;2022-10-28T05:34:40;53644.75;;;-139.68;92.37
10940;BME280;5522;42.696;23.494;2022-10-28T05:37:07;53650.78;;;-139.68;88.15
10940;BME280;5522;42.696;23.494;2022-10-28T05:39:35;53658.81;;;-139.68;75.41
10940;BME280;5522;42.696;23.494;2022-10-28T05:42:02;53674.91;;;-139.68;68.85
10940;BME280;5522;42.696;23.494;2022-10-28T05:44:29;53717.13;;;-139.68;60.45
10940;BME280;5522;42.696;23.494;2022-10-28T05:46:56;53699.03;;;-139.68;55.75
10940;BME280;5522;42.696;23.494;2022-10-28T05:49:22;53701.03;;;-139.68;51.40
10940;BME280;5522;42.696;23.494;2022-10-28T05:51:49;53674.91;;;-139.68;47.39
10940;BME280;5522;42.696;23.494;2022-10-28T05:54:16;53707.06;;;-139.68;46.96
10940;BME280;5522;42.696;23.494;2022-10-28T05:56:44;53713.09;;;-139.68;48.10
10940;BME280;5522;42.696;23.494;2022-10-28T05:59:11;53709.06;;;-139.68;45.07
10940;BME280;5522;42.696;23.494;2022-10-28T06:01:38;53719.13;;;-139.68;46.15
10940;BME280;5522;42.696;23.494;2022-10-28T06:04:05;53666.84;;;-139.68;44.10
10940;BME280;5522;42.696;23.494;2022-10-28T06:06:32;53725.16;;;-139.68;42.51
10940;BME280;5522;42.696;23.494;2022-10-28T06:08:59;53707.06;;;-139.68;42.75
10940;BME280;5522;42.696;23.494;2022-10-28T06:11:26;53741.22;;;-139.68;43.41
10940;BME280;5522;42.696;23.494;2022-10-28T06:13:54;53674.91;;;-139.68;44.42
10940;BME280;5522;42.696;23.494;2022-10-28T06:16:21;53699.03;;;-139.68;43.00
10940;BME280;5522;42.696;23.494;2022-10-28T06:18:48;53737.22;;;-139.68;42.91
10940;BME280;5522;42.696;23.494;2022-10-28T06:21:14;53755.31;;;-139.68;43.09
10940;BME280;5522;42.696;23.494;2022-10-28T06:23:41;53777.41;;;-139.68;42.55
10940;BME280;5522;42.696;23.494;2022-10-28T06:26:08;53751.28;;;-139.68;41.17
10940;BME280;5522;42.696;23.494;2022-10-28T06:28:35;53775.41;;;-139.68;40.73
10940;BME280;5522;42.696;23.494;2022-10-28T06:31:05;53777.41;;;-139.68;40.66
10940;BME280;5522;42.696;23.494;2022-10-28T06:33:32;53755.31;;;-139.68;41.06
10940;BME280;5522;42.696;23.494;2022-10-28T06:35:59;53747.25;;;-139.68;44.43
10940;BME280;5522;42.696;23.494;2022-10-28T06:38:27;53727.16;;;-139.68;44.06
10940;BME280;5522;42.696;23.494;2022-10-28T06:40:56;53737.22;;;-139.68;42.02
10940;BME280;5522;42.696;23.494;2022-10-28T06:43:23;53767.38;;;-139.68;42.28
10940;BME280;5522;42.696;23.494;2022-10-28T06:45:50;53765.34;;;-139.68;44.01
10940;BME280;5522;42.696;23.494;2022-10-28T06:48:21;53733.19;;;-139.68;42.36
10940;BME280;5522;42.696;23.494;2022-10-28T06:50:48;53763.34;;;-139.68;39.07
10940;BME280;5522;42.696;23.494;2022-10-28T06:53:15;53771.38;;;-139.68;37.52
10940;BME280;5522;42.696;23.494;2022-10-28T06:55:41;53767.38;;;-139.68;38.26
10940;BME280;5522;42.696;23.494;2022-10-28T06:58:13;53743.25;;;-139.68;37.29
10940;BME280;5522;42.696;23.494;2022-10-28T07:00:39;53761.34;;;-139.68;37.33
10940;BME280;5522;42.696;23.494;2022-10-28T07:03:08;53767.38;;;-139.68;36.31
10940;BME280;5522;42.696;23.494;2022-10-28T07:05:36;53767.38;;;-139.68;37.59
10940;BME280;5522;42.696;23.494;2022-10-28T07:08:03;53807.56;;;-139.68;36.15
10940;BME280;5522;42.696;23.494;2022-10-28T07:10:30;53767.38;;;-139.68;36.83
10940;BME280;5522;42.696;23.494;2022-10-28T07:12:57;53753.28;;;-139.68;36.55
10940;BME280;5522;42.696;23.494;2022-10-28T07:15:24;53759.31;;;-139.68;38.00
10940;BME280;5522;42.696;23.494;2022-10-28T07:17:51;53739.22;;;-139.68;36.67
10940;BME280;5522;42.696;23.494;2022-10-28T07:20:19;53783.44;;;-139.68;36.37
10940;BME280;5522;42.696;23.494;2022-10-28T07:22:47;53773.41;;;-139.68;35.92
10940;BME280;5522;42.696;23.494;2022-10-28T07:25:20;53801.53;;;-139.68;34.91
10940;BME280;5522;42.696;23.494;2022-10-28T07:27:47;53773.41;;;-139.68;34.62
10940;BME280;5522;42.696;23.494;2022-10-28T07:30:14;53807.56;;;-139.68;34.33
10940;BME280;5522;42.696;23.494;2022-10-28T07:32:41;53795.50;;;-139.68;33.97
10940;BME280;5522;42.696;23.494;2022-10-28T07:35:08;53791.50;;;-139.68;33.83
10940;BME280;5522;42.696;23.494;2022-10-28T07:37:36;53805.56;;;-139.68;34.50
10940;BME280;5522;42.696;23.494;2022-10-28T07:40:06;53803.56;;;-139.68;35.63
10940;BME280;5522;42.696;23.494;2022-10-28T07:42:33;53795.50;;;-139.68;34.23
10940;BME280;5522;42.696;23.494;2022-10-28T07:45:00;53815.63;;;-139.68;35.64
10940;BME280;5522;42.696;23.494;2022-10-28T07:47:27;53801.53;;;-139.68;33.76
10940;BME280;5522;42.696;23.494;2022-10-28T07:49:54;53823.66;;;-139.68;32.86
10940;BME280;5522;42.696;23.494;2022-10-28T07:52:21;53753.28;;;-139.68;33.71
10940;BME280;5522;42.696;23.494;2022-10-28T07:54:49;53829.69;;;-139.68;32.62
10940;BME280;5522;42.696;23.494;2022-10-28T07:57:18;53809.59;;;-139.68;33.27
10940;BME280;5522;42.696;23.494;2022-10-28T07:59:44;53777.41;;;-139.68;32.90
10940;BME280;5522;42.696;23.494;2022-10-28T08:02:15;53819.63;;;-139.68;32.04
10940;BME280;5522;42.696;23.494;2022-10-28T08:04:43;53783.44;;;-139.68;32.39
10940;BME280;5522;42.696;23.494;2022-10-28T08:07:10;53795.50;;;-139.68;31.99
10940;BME280;5522;42.696;23.494;2022-10-28T08:09:37;53741.22;;;-139.68;31.85
10940;BME280;5522;42.696;23.494;2022-10-28T08:12:04;53849.78;;;-139.68;31.55
10940;BME280;5522;42.696;23.494;2022-10-28T08:14:33;53799.53;;;-139.68;30.42
10940;BME280;5522;42.696;23.494;2022-10-28T08:17:00;53803.56;;;-139.68;31.43
10940;BME280;5522;42.696;23.494;2022-10-28T08:19:27;53791.50;;;-139.68;30.18
10940;BME280;5522;42.696;23.494;2022-10-28T08:21:54;53829.69;;;-139.68;30.86
10940;BME280;5522;42.696;23.494;2022-10-28T08:24:21;53817.63;;;-139.68;30.25
10940;BME280;5522;42.696;23.494;2022-10-28T08:26:47;53789.47;;;-139.68;29.87
10940;BME280;5522;42.696;23.494;2022-10-28T08:29:14;53819.63;;;-139.68;29.64
10940;BME280;5522;42.696;23.494;2022-10-28T08:31:43;53833.72;;;-139.68;30.02
10940;BME280;5522;42.696;23.494;2022-10-28T08:34:09;53811.59;;;-139.68;29.75
10940;BME280;5522;42.696;23.494;2022-10-28T08:36:36;53843.75;;;-139.68;28.37
10940;BME280;5522;42.696;23.494;2022-10-28T08:39:03;53849.78;;;-139.68;28.62
10940;BME280;5522;42.696;23.494;2022-10-28T08:41:36;53827.69;;;-139.68;29.82
10940;BME280;5522;42.696;23.494;2022-10-28T08:44:39;53843.75;;;-139.68;28.68
10940;BME280;5522;42.696;23.494;2022-10-28T08:47:19;53817.63;;;-139.68;28.93
10940;BME280;5522;42.696;23.494;2022-10-28T08:49:49;53823.66;;;-139.68;28.62
10940;BME280;5522;42.696;23.494;2022-10-28T08:52:25;53867.88;;;-139.68;27.12
10940;BME280;5522;42.696;23.494;2022-10-28T08:54:57;53833.72;;;-139.68;27.66
10940;BME280;5522;42.696;23.494;2022-10-28T08:57:33;53839.75;;;-139.68;27.57
10940;BME280;5522;42.696;23.494;2022-10-28T09:00:02;53823.66;;;-139.68;28.35
10940;BME280;5522;42.696;23.494;2022-10-28T09:02:43;53819.63;;;-139.68;28.34
10940;BME280;5522;42.696;23.494;2022-10-28T09:05:18;53827.69;;;-139.68;28.43
10940;BME280;5522;42.696;23.494;2022-10-28T09:07:46;53827.69;;;-139.68;27.50
10940;BME280;5522;42.696;23.494;2022-10-28T09:10:13;53825.66;;;-139.68;27.47
10940;BME280;5522;42.696;23.494;2022-10-28T09:12:48;53831.69;;;-139.68;26.96
10940;BME280;5522;42.696;23.494;2022-10-28T09:15:24;53837.72;;;-139.68;27.38
10940;BME280;5522;42.696;23.494;2022-10-28T09:18:04;53819.63;;;-139.68;26.28
10940;BME280;5522;42.696;23.494;2022-10-28T09:20:43;53898.03;;;-139.68;26.93
10940;BME280;5522;42.696;23.494;2022-10-28T09:23:20;53843.75;;;-139.68;27.67
10940;BME280;5522;42.696;23.494;2022-10-28T09:25:55;53827.69;;;-139.68;27.94
10940;BME280;5522;42.696;23.494;2022-10-28T09:28:39;53831.69;;;-139.68;27.44
10940;BME280;5522;42.696;23.494;2022-10-28T09:31:13;53831.69;;;-139.68;28.22
10940;BME280;5522;42.696;23.494;2022-10-28T09:34:00;53821.66;;;-139.68;26.96
10940;BME280;5522;42.696;23.494;2022-10-28T09:36:32;53831.69;;;-139.68;27.20
10940;BME280;5522;42.696;23.494;2022-10-28T09:39:02;53819.63;;;-139.68;26.96
10940;BME280;5522;42.696;23.494;2022-10-28T09:41:33;53831.69;;;-139.68;27.79
10940;BME280;5522;42.696;23.494;2022-10-28T09:44:04;53861.84;;;-139.68;26.47
10940;BME280;5522;42.696;23.494;2022-10-28T09:46:33;53849.78;;;-139.68;26.11
10940;BME280;5522;42.696;23.494;2022-10-28T09:49:04;53845.78;;;-139.68;25.70
10940;BME280;5522;42.696;23.494;2022-10-28T09:51:42;53843.75;;;-139.68;25.57
10940;BME280;5522;42.696;23.494;2022-10-28T09:54:12;53831.69;;;-139.68;25.50
10940;BME280;5522;42.696;23.494;2022-10-28T09:56:39;53879.94;;;-139.68;25.55
10940;BME280;5522;42.696;23.494;2022-10-28T09:59:11;53855.81;;;-139.68;25.46
10940;BME280;5522;42.696;23.494;2022-10-28T10:01:41;53829.69;;;-139.68;24.70
10940;BME280;5522;42.696;23.494;2022-10-28T10:04:18;53815.63;;;-139.68;24.41
10940;BME280;5522;42.696;23.494;2022-10-28T10:06:48;53847.78;;;-139.68;24.40
10940;BME280;5522;42.696;23.494;2022-10-28T10:09:21;53869.91;;;-139.68;24.45
10940;BME280;5522;42.696;23.494;2022-10-28T10:11:51;53875.94;;;-139.68;24.89
10940;BME280;5522;42.696;23.494;2022-10-28T10:14:24;53831.69;;;-139.68;24.35
10940;BME280;5522;42.696;23.494;2022-10-28T10:16:56;53843.75;;;-139.68;23.83
10940;BME280;5522;42.696;23.494;2022-10-28T10:19:25;53875.94;;;-139.68;23.65
10940;BME280;5522;42.696;23.494;2022-10-28T10:21:53;53847.78;;;-139.68;24.42
10940;BME280;5522;42.696;23.494;2022-10-28T10:24:38;53871.91;;;-139.68;24.11
10940;BME280;5522;42.696;23.494;2022-10-28T10:27:16;53888.00;;;-139.68;23.77
10940;BME280;5522;42.696;23.494;2022-10-28T10:29:45;53871.91;;;-139.68;23.92
10940;BME280;5522;42.696;23.494;2022-10-28T10:32:16;53861.84;;;-139.68;24.69
10940;BME280;5522;42.696;23.494;2022-10-28T10:34:53;53831.69;;;-139.68;23.41
10940;BME280;5522;42.696;23.494;2022-10-28T10:37:22;53843.75;;;-139.68;23.72
10940;BME280;5522;42.696;23.494;2022-10-28T10:40:03;53871.91;;;-139.68;22.85
10940;BME280;5522;42.696;23.494;2022-10-28T10:42:31;53827.69;;;-139.68;22.71
10940;BME280;5522;42.696;23.494;2022-10-28T10:45:01;53849.78;;;-139.68;23.97
10940;BME280;5522;42.696;23.494;2022-10-28T10:47:28;53879.94;;;-139.68;24.57
10940;BME280;5522;42.696;23.494;2022-10-28T10:50:19;53867.88;;;-139.68;25.13
10940;BME280;5522;42.696;23.494;2022-10-28T10:52:48;53863.88;;;-139.68;24.30
10940;BME280;5522;42.696;23.494;2022-10-28T10:55:21;53849.78;;;-139.68;24.96
10940;BME280;5522;42.696;23.494;2022-10-28T10:57:49;53819.63;;;-139.68;24.73
10940;BME280;5522;42.696;23.494;2022-10-28T11:00:19;53867.88;;;-139.68;26.24
10940;BME280;5522;42.696;23.494;2022-10-28T11:02:47;53881.97;;;-139.68;27.33
10940;BME280;5522;42.696;23.494;2022-10-28T11:05:21;53867.88;;;-139.68;28.41
10940;BME280;5522;42.696;23.494;2022-10-28T11:07:49;53863.88;;;-139.68;30.22
10940;BME280;5522;42.696;23.494;2022-10-28T11:10:25;53867.88;;;-139.68;31.39
10940;BME280;5522;42.696;23.494;2022-10-28T11:12:54;53863.88;;;-139.68;32.91
10940;BME280;5522;42.696;23.494;2022-10-28T11:15:25;53835.72;;;-139.68;33.97
10940;BME280;5522;42.696;23.494;2022-10-28T11:17:57;53877.94;;;-139.68;34.27
10940;BME280;5522;42.696;23.494;2022-10-28T11:20:27;53847.78;;;-139.68;35.47
10940;BME280;5522;42.696;23.494;2022-10-28T11:23:07;53863.88;;;-139.68;34.81
10940;BME280;5522;42.696;23.494;2022-10-28T11:25:37;53831.69;;;-139.68;34.21
10940;BME280;5522;42.696;23.494;2022-10-28T11:28:17;53879.94;;;-139.68;34.22
10940;BME280;5522;42.696;23.494;2022-10-28T11:30:57;53841.75;;;-139.68;33.97
10940;BME280;5522;42.696;23.494;2022-10-28T11:33:35;53817.63;;;-139.68;34.72
10940;BME280;5522;42.696;23.494;2022-10-28T11:36:14;53859.84;;;-139.68;34.44
10940;BME280;5522;42.696;23.494;2022-10-28T11:39:04;53829.69;;;-139.68;35.04
10940;BME280;5522;42.696;23.494;2022-10-28T11:41:43;53867.88;;;-139.68;35.58
10940;BME280;5522;42.696;23.494;2022-10-28T11:44:22;53845.78;;;-139.68;37.35
10940;BME280;5522;42.696;23.494;2022-10-28T11:47:01;53835.72;;;-139.68;35.58
10940;BME280;5522;42.696;23.494;2022-10-28T11:49:54;53863.88;;;-139.68;35.04
10940;BME280;5522;42.696;23.494;2022-10-28T11:52:36;53811.59;;;-139.68;35.14
10940;BME280;5522;42.696;23.494;2022-10-28T11:55:17;53823.66;;;-139.68;35.50
10940;BME280;5522;42.696;23.494;2022-10-28T11:57:59;53851.81;;;-139.68;34.21
10940;BME280;5522;42.696;23.494;2022-10-28T12:00:42;53853.81;;;-139.68;34.75
10940;BME280;5522;42.696;23.494;2022-10-28T12:03:33;53847.78;;;-139.68;35.83
10940;BME280;5522;42.696;23.494;2022-10-28T12:06:11;53827.69;;;-139.68;36.09
10940;BME280;5522;42.696;23.494;2022-10-28T12:09:01;53867.88;;;-139.68;36.91
10940;BME280;5522;42.696;23.494;2022-10-28T12:11:41;53859.84;;;-139.68;35.82
10940;BME280;5522;42.696;23.494;2022-10-28T12:14:16;53892.00;;;-139.68;35.39
10940;BME280;5522;42.696;23.494;2022-10-28T12:16:51;53843.75;;;-139.68;36.35
10940;BME280;5522;42.696;23.494;2022-10-28T12:19:26;53859.84;;;-139.68;35.65
10940;BME280;5522;42.696;23.494;2022-10-28T12:22:00;53843.75;;;-139.68;36.00
10940;BME280;5522;42.696;23.494;2022-10-28T12:24:33;53829.69;;;-139.68;37.15
10940;BME280;5522;42.696;23.494;2022-10-28T12:27:05;53825.66;;;-139.68;36.20
10940;BME280;5522;42.696;23.494;2022-10-28T12:29:39;53835.72;;;-139.68;36.41
10940;BME280;5522;42.696;23.494;2022-10-28T12:32:08;53823.66;;;-139.68;36.60
10940;BME280;5522;42.696;23.494;2022-10-28T12:34:41;53871.91;;;-139.68;37.62
10940;BME280;5522;42.696;23.494;2022-10-28T12:37:12;53855.81;;;-139.68;37.97
10940;BME280;5522;42.696;23.494;2022-10-28T12:39:46;53851.81;;;-139.68;36.85
10940;BME280;5522;42.696;23.494;2022-10-28T12:42:20;53881.97;;;-139.68;35.46
10940;BME280;5522;42.696;23.494;2022-10-28T12:44:48;53809.59;;;-139.68;35.85
10940;BME280;5522;42.696;23.494;2022-10-28T12:47:21;53821.66;;;-139.68;36.19
10940;BME280;5522;42.696;23.494;2022-10-28T12:49:59;53831.69;;;-139.68;36.43
10940;BME280;5522;42.696;23.494;2022-10-28T12:52:48;53823.66;;;-139.68;36.38
10940;BME280;5522;42.696;23.494;2022-10-28T12:55:30;53833.72;;;-139.68;36.06
10940;BME280;5522;42.696;23.494;2022-10-28T12:58:03;53797.53;;;-139.68;37.18
10940;BME280;5522;42.696;23.494;2022-10-28T13:00:35;53851.81;;;-139.68;37.66
10940;BME280;5522;42.696;23.494;2022-10-28T13:03:04;53843.75;;;-139.68;36.87
10940;BME280;5522;42.696;23.494;2022-10-28T13:05:36;53831.69;;;-139.68;37.17